Jack C. Davis Observatory, Carson City, Nevada Weather observations

Data are for observation ending at time listed.
 Day   Time    Ave.   Ave.  Ave.  Vector   Max.   Stn.    Total    Solar   Ave.  
  of    of     Air    Rel.  Wind   Wind    Wind   Baro.  Precip.   Rad.    Soil  
Year   Day     Temp.  Hum.  Speed  Dir.    Gust   Pres.                    Temp. 
2017   (PST)    F      %     mph   deg.    mph     mb.     in.     W/m2     F   
------------------------------------------------------------------------------
 321   17:10   34.3    60    2.5   317      4.5   851.3    0.00       1    999.0
 321   17:20   33.8    62    3.4   323      5.6   851.3    0.00       0    999.0
 321   17:30   34.5    57    5.3   308      7.7   851.3    0.00       0    999.0
 321   17:40   34.2    59    3.8   320      5.8   851.6    0.00       0    999.0
 321   17:50   33.4    61    4.1   322      6.2   851.7    0.00       0    999.0
 321   18:00   33.4    60    3.7   308      5.6   851.8    0.00       0    999.0
 321   18:10   33.9    57    3.6   310      5.3   851.8    0.00       0    999.0
 321   18:20   33.9    57    3.5   296      5.6   851.9    0.00       0    999.0
 321   18:30   33.1    61    2.3   298      3.9   852.1    0.00       0    999.0
 321   18:40   32.6    63    4.6   260      6.9   852.2    0.00       0    999.0
 321   18:50   33.0    62    6.2   265      8.3   852.1    0.00       0    999.0
 321   19:00   32.7    63    4.6   274      6.5   852.2    0.00       0    999.0
 321   19:10   32.5    63    5.2   268      7.2   852.2    0.00       0    999.0
 321   19:20   32.2    64    6.0   262      8.0   852.3    0.00       0    999.0
 321   19:30   33.5    59    5.2   254      7.2   852.5    0.00       0    999.0
 321   19:40   33.1    61    5.8   266      7.9   852.5    0.00       0    999.0
 321   19:50   32.9    61    5.7   265      7.6   852.6    0.00       0    999.0
 321   20:00   33.1    61    5.9   267      8.8   852.8    0.00       0    999.0
 321   20:10   32.9    62    5.6   264      8.0   852.8    0.00       0    999.0
 321   20:20   32.0    65    4.9   267      6.4   852.8    0.00       0    999.0
 321   20:30   31.9    65    4.6   270      6.3   852.9    0.00       0    999.0
 321   20:40   32.1    64    3.1   280      4.5   853.1    0.00       0    999.0
 321   20:50   31.3    67    3.7   283      6.1   853.2    0.00       0    999.0
 321   21:00   31.3    66    3.4   288      5.3   853.3    0.00       0    999.0
 321   21:10   31.0    68    3.2   279      5.2   853.3    0.00       0    999.0
 321   21:20   30.5    69    5.9   267      8.0   853.3    0.00       0    999.0
 321   21:30   30.8    67    6.1   269      7.9   853.4    0.00       0    999.0
 321   21:40   30.7    67    4.5   256      5.9   853.6    0.00       0    999.0
 321   21:50   30.9    66    5.0   262      6.4   853.6    0.00       0    999.0
 321   22:00   31.3    64    4.2   252      7.2   853.5    0.00       0    999.0
 321   22:10   31.9    62    3.6   253      6.1   853.6    0.00       0    999.0
 321   22:20   31.4    63    2.1   225      5.3   853.7    0.00       0    999.0
 321   22:30   32.2    60    4.1   214      6.3   853.8    0.00       0    999.0
 321   22:40   31.9    61    2.3   267      4.5   853.8    0.00       0    999.0
 321   22:50   31.2    63    2.9   277      4.3   853.8    0.00       0    999.0
 321   23:00   30.7    65    3.2   283      5.2   853.8    0.00       0    999.0
 321   23:10   30.4    65    3.4   280      5.5   853.9    0.00       0    999.0
 321   23:20   29.9    67    5.0   270      6.6   853.9    0.00       0    999.0
 321   23:30   29.7    68    5.5   265      7.2   853.9    0.00       0    999.0
 321   23:40   30.2    66    4.6   269      6.9   853.9    0.00       0    999.0
 321   23:50   30.0    66    4.8   265      6.7   853.8    0.00       0    999.0
 322    0:00   29.5    68    4.6   266      6.3   853.8    0.00       0    999.0
 322    0:10   29.5    67    4.0   267      5.4   853.8    0.00       0    999.0
 322    0:20   29.6    67    3.0   278      4.8   853.8    0.00       0    999.0
 322    0:30   29.8    66    1.2   267      2.6   853.9    0.00       0    999.0
 322    0:40   29.3    68    3.6   258      4.9   853.9    0.00       0    999.0
 322    0:50   29.3    68    4.0   267      5.2   853.9    0.00       0    999.0
 322    1:00   29.5    68    3.5   284      5.1   853.8    0.00       0    999.0
 322    1:10   29.4    68    3.2   282      4.9   853.7    0.00       0    999.0
 322    1:20   28.3    72    3.8   282      5.7   853.8    0.00       0    999.0
 322    1:30   27.8    74    4.9   272      6.4   853.7    0.00       0    999.0
 322    1:40   27.6    74    3.8   277      5.9   853.7    0.00       0    999.0
 322    1:50   28.1    73    1.7   274      4.4   853.7    0.00       0    999.0
 322    2:00   28.6    71    1.0   267      2.6   853.6    0.00       0    999.0
 322    2:10   27.9    73    2.2   282      3.3   853.6    0.00       0    999.0
 322    2:20   27.0    76    2.9   279      4.1   853.5    0.00       0    999.0
 322    2:30   26.6    78    2.8   281      3.9   853.6    0.00       0    999.0
 322    2:40   26.3    79    3.1   270      4.3   853.6    0.00       0    999.0
 322    2:50   26.6    78    2.0   277      3.5   853.5    0.00       0    999.0
 322    3:00   25.9    80    2.4   276      4.4   853.4    0.00       0    999.0
 322    3:10   26.1    79    2.3   280      3.0   853.4    0.00       0    999.0
 322    3:20   26.4    78    1.3   273      3.3   853.5    0.00       0    999.0
 322    3:30   25.9    80    1.6   282      2.8   853.6    0.00       0    999.0
 322    3:40   25.8    80    2.7   301      3.4   853.6    0.00       0    999.0
 322    3:50   26.2    79    2.5   299      3.1   853.5    0.00       0    999.0
 322    4:00   26.9    77    1.5   286      3.2   853.4    0.00       0    999.0
 322    4:10   27.1    77    0.8   246      2.5   853.4    0.00       0    999.0
 322    4:20   27.1    76    0.0   190      0.6   853.4    0.00       0    999.0
 322    4:30   26.5    78    0.2   260      1.4   853.4    0.00       0    999.0
 322    4:40   26.3    78    0.2   260      1.0   853.4    0.00       0    999.0
 322    4:50   25.8    80    0.0     0      0.0   853.3    0.00       0    999.0
 322    5:00   25.6    81    0.1   181      1.0   853.3    0.00       0    999.0
 322    5:10   25.2    82    0.0     0      0.0   853.4    0.00       0    999.0
 322    5:20   25.0    83    0.3   123      1.8   853.6    0.00       0    999.0
 322    5:30   24.5    83    3.0   265      4.1   853.7    0.00       0    999.0
 322    5:40   24.2    85    2.6   310      4.2   853.6    0.00       0    999.0
 322    5:50   24.7    84    2.0   297      2.9   853.5    0.00       0    999.0
 322    6:00   25.2    82    1.3   273      2.8   853.6    0.00       0    999.0
 322    6:10   25.7    79    0.9   287      1.9   853.6    0.00       0    999.0
 322    6:20   24.9    81    1.8   302      2.9   853.6    0.00       0    999.0
 322    6:30   25.1    82    0.6   284      1.3   853.6    0.00       1    999.0
 322    6:40   25.7    80    0.1   194      1.4   853.6    0.00       1    999.0
 322    6:50   25.0    81    1.6   211      2.9   853.7    0.00       4    999.0
 322    7:00   24.5    82    0.8   277      2.9   853.8    0.00       8    999.0
 322    7:10   25.1    82    1.6   309      2.4   853.8    0.00      35    999.0
 322    7:20   27.5    78    0.3   298      1.5   853.8    0.00      65    999.0
 322    7:30   29.9    72    0.0     0      0.0   853.9    0.00     100    999.0
 322    7:40   32.1    68    0.0   266      0.1   854.1    0.00     142    999.0
 322    7:50   34.4    62    0.1   266      1.1   854.1    0.00     175    999.0
 322    8:00   31.5    70    1.4   105      2.6   854.3    0.00     192    999.0
 322    8:10   30.4    74    1.1    97      2.0   854.3    0.00     205    999.0
 322    8:20   30.6    73    1.5   108      2.6   854.4    0.00     233    999.0
 322    8:30   31.5    72    1.3   129      2.4   854.4    0.00     259    999.0
 322    8:40   33.4    66    1.0   130      2.5   854.4    0.00     276    999.0
 322    8:50   32.2    69    1.7    88      3.6   854.4    0.00     297    999.0
 322    9:00   32.4    69    1.8   109      3.5   854.5    0.00     321    999.0
 322    9:10   32.8    69    2.3   124      3.9   854.5    0.00     344    999.0
 322    9:20   34.0    65    2.9   139      5.0   854.5    0.00     366    999.0
 322    9:30   34.5    61    3.3   152      6.3   854.4    0.00     388    999.0
 322    9:40   34.5    61    3.1   136      5.1   854.4    0.00     408    999.0
 322    9:50   34.6    61    3.3   126      5.6   854.4    0.00     426    999.0
 322   10:00   35.0    60    3.4   120      6.6   854.4    0.00     444    999.0
 322   10:10   35.9    58    3.3   133      6.4   854.3    0.00     460    999.0
 322   10:20   35.0    59    3.5   109      6.6   854.3    0.00     475    999.0
 322   10:30   35.4    59    3.5   125      5.8   854.3    0.00     488    999.0
 322   10:40   35.8    59    3.4   124      8.0   854.3    0.00     500    999.0
 322   10:50   37.1    57    3.6   143      6.5   854.2    0.00     510    999.0
 322   11:00   37.7    56    4.3   115      8.8   854.1    0.00     518    999.0
 322   11:10   37.6    55    3.8   122      8.1   853.9    0.00     525    999.0
 322   11:20   38.4    53    3.5   124      7.1   853.8    0.00     531    999.0
 322   11:30   39.0    52    3.8   146      6.5   853.5    0.00     534    999.0
 322   11:40   39.1    53    4.9   122      8.0   853.4    0.00     537    999.0
 322   11:50   40.1    51    4.0   145      7.7   853.2    0.00     538    999.0
 322   12:00   41.2    50    5.2   138      8.9   853.1    0.00     537    999.0
 322   12:10   41.2    49    4.0   138      7.2   852.9    0.00     534    999.0
 322   12:20   41.0    50    3.7   121      7.2   852.8    0.00     530    999.0
 322   12:30   41.2    49    3.8   117      7.5   852.7    0.00     524    999.0
 322   12:40   41.3    50    4.9   116      9.2   852.7    0.00     516    999.0
 322   12:50   41.0    50    3.4    91      7.4   852.5    0.00     507    999.0
 322   13:00   41.6    50    4.3   126      7.5   852.4    0.00     497    999.0
 322   13:10   41.1    51    3.9    95      8.1   852.3    0.00     484    999.0
 322   13:20   42.0    50    3.4    99      7.7   852.2    0.00     470    999.0
 322   13:30   41.6    50    3.1    85      6.9   852.1    0.00     455    999.0
 322   13:40   42.6    49    4.1   126      7.3   852.0    0.00     438    999.0
 322   13:50   42.3    49    3.5    88      7.5   851.9    0.00     421    999.0
 322   14:00   42.5    48    2.4    83      6.4   851.8    0.00     402    999.0
 322   14:10   42.9    48    3.1   101      6.0   851.7    0.00     382    999.0
 322   14:20   43.6    46    2.4   119      5.3   851.7    0.00     360    999.0
 322   14:30   44.8    44    1.9   106      4.5   851.6    0.00     229    999.0
 322   14:40   43.1    48    2.9   149      5.0   851.6    0.00      91    999.0
 322   14:50   44.2    46    2.6   157      5.3   851.6    0.00     310    999.0
 322   15:00   44.9    45    3.4   124      6.3   851.6    0.00     317    999.0
 322   15:10   44.7    46    4.0   126      7.4   851.5    0.00     255    999.0
 322   15:20   44.8    46    2.2   108      4.8   851.5    0.00     212    999.0
 322   15:30   43.4    48    3.6   126      6.4   851.5    0.00      64    999.0
 322   15:40   42.6    51    2.6   144      4.7   851.4    0.00      65    999.0
 322   15:50   41.5    53    3.7   135      5.9   851.4    0.00      41    999.0
 322   16:00   40.6    57    1.6   151      4.5   851.4    0.00      44    999.0
 322   16:10   40.0    59    2.0   176      3.5   851.5    0.00      35    999.0
 322   16:20   39.8    59    3.2   145      5.1   851.5    0.00      22    999.0
 322   16:30   39.6    58    2.5   155      4.0   851.6    0.00      11    999.0
 322   16:40   39.1    60    2.3   185      4.0   851.6    0.00       5    999.0
 322   16:50   38.6    61    2.8   205      4.9   851.5    0.00       2    999.0
 322   17:00   38.3    61    3.0   193      5.6   851.5    0.00       2    999.0

Return to Yerington, Nevada graphs page.


Western Regional Climate Center,wrcc@dri.edu